Huvudsida
METAR-TAF:

METAR-TAF

Flygplatser :

Malabos internationella flygplats

Malabo, Ekvatorialguinea

latitud: 03-45-18N, longitud: 08-42-31E, höjd: 23 m

Aktuellt väderrapport

Denna rapport gjordes för 1 timme och 19 minuter sedan, klockan 20:00 UTC
Vind 5 kt från väst/sydväst
Temperatur 25°C
Fuktighet 94%
Tryck 1013 hPa
Sikt 10 km eller mer
Få moln på en höjd av 1300 ft

METAR: FGSL 142000Z 24005KT 9999 FEW013 25/24 Q1013 NOSIG

Tid: 22:19 (21:19 UTC)

Väderprognos

Denna rapport gjordes för 4 timmar och 19 minuter sedan, klockan 17:00 UTC
Prognos gäller från 14 kl. 18 UTC till 15 kl. 24 UTC
Vind 6 kt från väst/sydväst
Sikt 10 km eller mer
Spridda moln på en höjd av 1200 ft
Få moln på en höjd av 2000 ft, Cumulonimbus.
Sannolikhet 30% :
Temporärt
från 14 kl. 21 UTC till 15 kl. 08 UTC
åska

TAF: FGSL 141700Z 1418/1524 24006KT 9999 SCT012 FEW020CB PROB30 TEMPO 1421/1508 TS

Aktuella väderrapporter och prognoser från 4000 flygplatser (METAR- och TAF-rapporter).

De tillgängliga stationerna syns som gula och röda prickar på kartan.

För musen över prickarna för att se namnen på stationerna.

Klicka sedan för att få väderrapporter och prognoser.

För att ändra kartan: Klicka på de gröna knapparna med ett svart kors på för att zooma in; den gröna knappen med ett streck på för att zooma ut; eller på de gröna pilarna för angränsande kartor.


METAR-TAF: